<?xml version="1.0" encoding="UTF-8" standalone="no" ?>
<gpx xmlns="http://www.topografix.com/GPX/1/1" creator="MapSource 6.11.6" version="1.1" xmlns:xsi="http://www.w3.org/2001/XMLSchema-instance" xsi:schemaLocation="http://www.topografix.com/GPX/1/1 http://www.topografix.com/GPX/1/1/gpx.xsd">

  <metadata>
    <link href="http://www.garmin.com">
      <text>Garmin International</text>
    </link>
    <time>2009-05-14T19:30:18Z</time>
    <bounds maxlat="50.588554" maxlon="6.530594" minlat="50.569703" minlon="6.492377"/>
  </metadata>

  <trk>
    <name>Gemünd-Thönnishäuschen RW</name>
    <extensions>
      <gpxx:TrackExtension xmlns:gpxx="http://www.garmin.com/xmlschemas/GpxExtensions/v3" xmlns:xsi="http://www.w3.org/2001/XMLSchema-instance" xsi:schemaLocation="http://www.garmin.com/xmlschemas/GpxExtensions/v3 http://www.garmin.com/xmlschemas/GpxExtensions/v3/GpxExtensionsv3.xsd">
        <gpxx:DisplayColor>White</gpxx:DisplayColor>
      </gpxx:TrackExtension>
    </extensions>
    <trkseg>
      <trkpt lat="50.586705" lon="6.506324">
        <ele>503.387000</ele>
        <time>2009-05-14T21:31:20Z</time>
      </trkpt>
      <trkpt lat="50.586459" lon="6.506445">
        <ele>506.271000</ele>
        <time>2009-05-14T21:31:42Z</time>
      </trkpt>
      <trkpt lat="50.585762" lon="6.506510">
        <ele>505.791000</ele>
        <time>2009-05-14T21:32:43Z</time>
      </trkpt>
      <trkpt lat="50.585449" lon="6.506631">
        <ele>504.349000</ele>
        <time>2009-05-14T21:33:11Z</time>
      </trkpt>
      <trkpt lat="50.585166" lon="6.506814">
        <ele>503.868000</ele>
        <time>2009-05-14T21:33:37Z</time>
      </trkpt>
      <trkpt lat="50.584818" lon="6.507058">
        <ele>503.387000</ele>
        <time>2009-05-14T21:34:11Z</time>
      </trkpt>
      <trkpt lat="50.584188" lon="6.507716">
        <ele>503.868000</ele>
        <time>2009-05-14T21:35:16Z</time>
      </trkpt>
      <trkpt lat="50.583732" lon="6.508720">
        <ele>506.752000</ele>
        <time>2009-05-14T21:36:25Z</time>
      </trkpt>
      <trkpt lat="50.583658" lon="6.509186">
        <ele>508.194000</ele>
        <time>2009-05-14T21:36:51Z</time>
      </trkpt>
      <trkpt lat="50.582599" lon="6.510717">
        <ele>512.520000</ele>
        <time>2009-05-14T21:38:56Z</time>
      </trkpt>
      <trkpt lat="50.581986" lon="6.511601">
        <ele>514.923000</ele>
        <time>2009-05-14T21:40:09Z</time>
      </trkpt>
      <trkpt lat="50.581879" lon="6.511696">
        <ele>515.404000</ele>
        <time>2009-05-14T21:40:19Z</time>
      </trkpt>
      <trkpt lat="50.581737" lon="6.511881">
        <ele>516.365000</ele>
        <time>2009-05-14T21:40:35Z</time>
      </trkpt>
      <trkpt lat="50.581800" lon="6.512336">
        <ele>514.923000</ele>
        <time>2009-05-14T21:41:01Z</time>
      </trkpt>
      <trkpt lat="50.582026" lon="6.512870">
        <ele>512.039000</ele>
        <time>2009-05-14T21:41:36Z</time>
      </trkpt>
      <trkpt lat="50.582168" lon="6.513690">
        <ele>509.636000</ele>
        <time>2009-05-14T21:42:23Z</time>
      </trkpt>
      <trkpt lat="50.582366" lon="6.514142">
        <ele>507.233000</ele>
        <time>2009-05-14T21:42:54Z</time>
      </trkpt>
      <trkpt lat="50.582404" lon="6.514834">
        <ele>505.791000</ele>
        <time>2009-05-14T21:43:32Z</time>
      </trkpt>
      <trkpt lat="50.582404" lon="6.516289">
        <ele>503.387000</ele>
        <time>2009-05-14T21:44:53Z</time>
      </trkpt>
      <trkpt lat="50.582695" lon="6.517408">
        <ele>500.023000</ele>
        <time>2009-05-14T21:45:59Z</time>
      </trkpt>
      <trkpt lat="50.582993" lon="6.518389">
        <ele>496.178000</ele>
        <time>2009-05-14T21:46:59Z</time>
      </trkpt>
      <trkpt lat="50.583126" lon="6.518689">
        <ele>495.697000</ele>
        <time>2009-05-14T21:47:20Z</time>
      </trkpt>
      <trkpt lat="50.583177" lon="6.519371">
        <ele>496.178000</ele>
        <time>2009-05-14T21:47:58Z</time>
      </trkpt>
      <trkpt lat="50.583036" lon="6.520456">
        <ele>498.100000</ele>
        <time>2009-05-14T21:48:59Z</time>
      </trkpt>
      <trkpt lat="50.582709" lon="6.520980">
        <ele>496.178000</ele>
        <time>2009-05-14T21:49:39Z</time>
      </trkpt>
      <trkpt lat="50.582226" lon="6.521737">
        <ele>498.100000</ele>
        <time>2009-05-14T21:50:39Z</time>
      </trkpt>
      <trkpt lat="50.581603" lon="6.522552">
        <ele>500.504000</ele>
        <time>2009-05-14T21:51:49Z</time>
      </trkpt>
      <trkpt lat="50.581383" lon="6.522912">
        <ele>500.984000</ele>
        <time>2009-05-14T21:52:17Z</time>
      </trkpt>
      <trkpt lat="50.581118" lon="6.523339">
        <ele>500.984000</ele>
        <time>2009-05-14T21:52:50Z</time>
      </trkpt>
      <trkpt lat="50.580873" lon="6.523729">
        <ele>500.504000</ele>
        <time>2009-05-14T21:53:20Z</time>
      </trkpt>
      <trkpt lat="50.580378" lon="6.524315">
        <ele>500.504000</ele>
        <time>2009-05-14T21:54:14Z</time>
      </trkpt>
      <trkpt lat="50.579924" lon="6.525053">
        <ele>500.504000</ele>
        <time>2009-05-14T21:55:11Z</time>
      </trkpt>
      <trkpt lat="50.579659" lon="6.525547">
        <ele>500.984000</ele>
        <time>2009-05-14T21:55:47Z</time>
      </trkpt>
      <trkpt lat="50.579346" lon="6.525835">
        <ele>502.426000</ele>
        <time>2009-05-14T21:56:18Z</time>
      </trkpt>
      <trkpt lat="50.578992" lon="6.526185">
        <ele>503.868000</ele>
        <time>2009-05-14T21:56:54Z</time>
      </trkpt>
      <trkpt lat="50.577927" lon="6.529732">
        <ele>509.636000</ele>
        <time>2009-05-14T22:00:31Z</time>
      </trkpt>
      <trkpt lat="50.577620" lon="6.530240">
        <ele>505.791000</ele>
        <time>2009-05-14T22:01:10Z</time>
      </trkpt>
      <trkpt lat="50.577459" lon="6.530585">
        <ele>502.426000</ele>
        <time>2009-05-14T22:01:34Z</time>
      </trkpt>
      <trkpt lat="50.577057" lon="6.530594">
        <ele>498.581000</ele>
        <time>2009-05-14T22:02:09Z</time>
      </trkpt>
      <trkpt lat="50.576630" lon="6.530356">
        <ele>495.697000</ele>
        <time>2009-05-14T22:02:48Z</time>
      </trkpt>
      <trkpt lat="50.576498" lon="6.529917">
        <ele>491.852000</ele>
        <time>2009-05-14T22:03:15Z</time>
      </trkpt>
      <trkpt lat="50.576221" lon="6.529842">
        <ele>488.968000</ele>
        <time>2009-05-14T22:03:39Z</time>
      </trkpt>
      <trkpt lat="50.575982" lon="6.530112">
        <ele>486.564000</ele>
        <time>2009-05-14T22:04:05Z</time>
      </trkpt>
      <trkpt lat="50.575941" lon="6.530363">
        <ele>483.680000</ele>
        <time>2009-05-14T22:04:19Z</time>
      </trkpt>
      <trkpt lat="50.575686" lon="6.530000">
        <ele>481.277000</ele>
        <time>2009-05-14T22:04:49Z</time>
      </trkpt>
      <trkpt lat="50.575607" lon="6.529952">
        <ele>477.912000</ele>
        <time>2009-05-14T22:04:57Z</time>
      </trkpt>
      <trkpt lat="50.575243" lon="6.529567">
        <ele>475.029000</ele>
        <time>2009-05-14T22:05:35Z</time>
      </trkpt>
      <trkpt lat="50.575047" lon="6.529111">
        <ele>471.664000</ele>
        <time>2009-05-14T22:06:05Z</time>
      </trkpt>
      <trkpt lat="50.574939" lon="6.528625">
        <ele>468.780000</ele>
        <time>2009-05-14T22:06:34Z</time>
      </trkpt>
      <trkpt lat="50.574771" lon="6.527586">
        <ele>463.493000</ele>
        <time>2009-05-14T22:07:33Z</time>
      </trkpt>
      <trkpt lat="50.574466" lon="6.527142">
        <ele>461.089000</ele>
        <time>2009-05-14T22:08:09Z</time>
      </trkpt>
      <trkpt lat="50.573990" lon="6.526708">
        <ele>458.206000</ele>
        <time>2009-05-14T22:08:57Z</time>
      </trkpt>
      <trkpt lat="50.573705" lon="6.526557">
        <ele>455.322000</ele>
        <time>2009-05-14T22:09:23Z</time>
      </trkpt>
      <trkpt lat="50.573308" lon="6.527019">
        <ele>452.438000</ele>
        <time>2009-05-14T22:10:06Z</time>
      </trkpt>
      <trkpt lat="50.573019" lon="6.527301">
        <ele>448.592000</ele>
        <time>2009-05-14T22:10:36Z</time>
      </trkpt>
      <trkpt lat="50.572871" lon="6.527166">
        <ele>445.708000</ele>
        <time>2009-05-14T22:10:51Z</time>
      </trkpt>
      <trkpt lat="50.572620" lon="6.526815">
        <ele>442.344000</ele>
        <time>2009-05-14T22:11:20Z</time>
      </trkpt>
      <trkpt lat="50.572167" lon="6.526436">
        <ele>439.460000</ele>
        <time>2009-05-14T22:12:04Z</time>
      </trkpt>
      <trkpt lat="50.571901" lon="6.526008">
        <ele>435.615000</ele>
        <time>2009-05-14T22:12:37Z</time>
      </trkpt>
      <trkpt lat="50.571688" lon="6.526060">
        <ele>432.250000</ele>
        <time>2009-05-14T22:12:56Z</time>
      </trkpt>
      <trkpt lat="50.571283" lon="6.526353">
        <ele>428.405000</ele>
        <time>2009-05-14T22:13:35Z</time>
      </trkpt>
      <trkpt lat="50.570746" lon="6.526475">
        <ele>425.521000</ele>
        <time>2009-05-14T22:14:22Z</time>
      </trkpt>
      <trkpt lat="50.570478" lon="6.526937">
        <ele>421.675000</ele>
        <time>2009-05-14T22:14:57Z</time>
      </trkpt>
      <trkpt lat="50.570423" lon="6.527321">
        <ele>416.869000</ele>
        <time>2009-05-14T22:15:19Z</time>
      </trkpt>
      <trkpt lat="50.570353" lon="6.527633">
        <ele>408.698000</ele>
        <time>2009-05-14T22:15:37Z</time>
      </trkpt>
      <trkpt lat="50.570256" lon="6.527576">
        <ele>402.930000</ele>
        <time>2009-05-14T22:15:46Z</time>
      </trkpt>
      <trkpt lat="50.569836" lon="6.527117">
        <ele>397.642000</ele>
        <time>2009-05-14T22:16:30Z</time>
      </trkpt>
      <trkpt lat="50.569703" lon="6.526696">
        <ele>392.355000</ele>
        <time>2009-05-14T22:16:56Z</time>
      </trkpt>
      <trkpt lat="50.569785" lon="6.526248">
        <ele>388.991000</ele>
        <time>2009-05-14T22:17:22Z</time>
      </trkpt>
      <trkpt lat="50.569962" lon="6.525714">
        <ele>388.029000</ele>
        <time>2009-05-14T22:17:55Z</time>
      </trkpt>
      <trkpt lat="50.570044" lon="6.525210">
        <ele>384.665000</ele>
        <time>2009-05-14T22:18:24Z</time>
      </trkpt>
      <trkpt lat="50.570128" lon="6.524671">
        <ele>381.300000</ele>
        <time>2009-05-14T22:18:55Z</time>
      </trkpt>
      <trkpt lat="50.570146" lon="6.524195">
        <ele>375.052000</ele>
        <time>2009-05-14T22:19:21Z</time>
      </trkpt>
      <trkpt lat="50.570117" lon="6.523437">
        <ele>368.322000</ele>
        <time>2009-05-14T22:20:03Z</time>
      </trkpt>
      <trkpt lat="50.570193" lon="6.522474">
        <ele>362.074000</ele>
        <time>2009-05-14T22:20:57Z</time>
      </trkpt>
      <trkpt lat="50.570137" lon="6.521907">
        <ele>361.593000</ele>
        <time>2009-05-14T22:21:29Z</time>
      </trkpt>
      <trkpt lat="50.570090" lon="6.521281">
        <ele>360.632000</ele>
        <time>2009-05-14T22:22:03Z</time>
      </trkpt>
      <trkpt lat="50.570161" lon="6.520675">
        <ele>359.670000</ele>
        <time>2009-05-14T22:22:37Z</time>
      </trkpt>
      <trkpt lat="50.570346" lon="6.520292">
        <ele>358.709000</ele>
        <time>2009-05-14T22:23:04Z</time>
      </trkpt>
      <trkpt lat="50.570583" lon="6.519925">
        <ele>358.228000</ele>
        <time>2009-05-14T22:23:33Z</time>
      </trkpt>
      <trkpt lat="50.570836" lon="6.519452">
        <ele>357.267000</ele>
        <time>2009-05-14T22:24:07Z</time>
      </trkpt>
      <trkpt lat="50.570997" lon="6.518853">
        <ele>357.748000</ele>
        <time>2009-05-14T22:24:43Z</time>
      </trkpt>
      <trkpt lat="50.570943" lon="6.517648">
        <ele>357.748000</ele>
        <time>2009-05-14T22:25:50Z</time>
      </trkpt>
      <trkpt lat="50.571064" lon="6.516944">
        <ele>355.344000</ele>
        <time>2009-05-14T22:26:30Z</time>
      </trkpt>
      <trkpt lat="50.571105" lon="6.516524">
        <ele>353.903000</ele>
        <time>2009-05-14T22:26:54Z</time>
      </trkpt>
      <trkpt lat="50.571135" lon="6.516156">
        <ele>352.941000</ele>
        <time>2009-05-14T22:27:14Z</time>
      </trkpt>
      <trkpt lat="50.571196" lon="6.515814">
        <ele>351.980000</ele>
        <time>2009-05-14T22:27:34Z</time>
      </trkpt>
      <trkpt lat="50.571478" lon="6.515371">
        <ele>351.018000</ele>
        <time>2009-05-14T22:28:09Z</time>
      </trkpt>
      <trkpt lat="50.571739" lon="6.515002">
        <ele>350.057000</ele>
        <time>2009-05-14T22:28:39Z</time>
      </trkpt>
      <trkpt lat="50.571948" lon="6.514714">
        <ele>349.096000</ele>
        <time>2009-05-14T22:29:03Z</time>
      </trkpt>
      <trkpt lat="50.571991" lon="6.513956">
        <ele>344.289000</ele>
        <time>2009-05-14T22:29:45Z</time>
      </trkpt>
      <trkpt lat="50.572052" lon="6.513420">
        <ele>341.405000</ele>
        <time>2009-05-14T22:30:15Z</time>
      </trkpt>
      <trkpt lat="50.572035" lon="6.511159">
        <ele>334.676000</ele>
        <time>2009-05-14T22:32:20Z</time>
      </trkpt>
      <trkpt lat="50.572099" lon="6.509087">
        <ele>328.908000</ele>
        <time>2009-05-14T22:34:15Z</time>
      </trkpt>
      <trkpt lat="50.572047" lon="6.508490">
        <ele>326.024000</ele>
        <time>2009-05-14T22:34:48Z</time>
      </trkpt>
      <trkpt lat="50.571995" lon="6.508039">
        <ele>323.140000</ele>
        <time>2009-05-14T22:35:14Z</time>
      </trkpt>
      <trkpt lat="50.571947" lon="6.507590">
        <ele>322.179000</ele>
        <time>2009-05-14T22:35:39Z</time>
      </trkpt>
      <trkpt lat="50.571813" lon="6.506340">
        <ele>321.698000</ele>
        <time>2009-05-14T22:36:49Z</time>
      </trkpt>
      <trkpt lat="50.571763" lon="6.505417">
        <ele>316.411000</ele>
        <time>2009-05-14T22:37:40Z</time>
      </trkpt>
      <trkpt lat="50.571802" lon="6.504295">
        <ele>310.162000</ele>
        <time>2009-05-14T22:38:42Z</time>
      </trkpt>
      <trkpt lat="50.571471" lon="6.503873">
        <ele>358.709000</ele>
        <time>2009-05-14T22:39:19Z</time>
      </trkpt>
      <trkpt lat="50.571524" lon="6.503884">
        <ele>359.190000</ele>
        <time>2009-05-14T22:39:24Z</time>
      </trkpt>
      <trkpt lat="50.571525" lon="6.503685">
        <ele>359.190000</ele>
        <time>2009-05-14T22:39:35Z</time>
      </trkpt>
      <trkpt lat="50.571750" lon="6.503489">
        <ele>360.151000</ele>
        <time>2009-05-14T22:39:57Z</time>
      </trkpt>
      <trkpt lat="50.571940" lon="6.503096">
        <ele>357.267000</ele>
        <time>2009-05-14T22:40:25Z</time>
      </trkpt>
      <trkpt lat="50.572184" lon="6.502731">
        <ele>357.267000</ele>
        <time>2009-05-14T22:40:54Z</time>
      </trkpt>
      <trkpt lat="50.572428" lon="6.502313">
        <ele>355.825000</ele>
        <time>2009-05-14T22:41:25Z</time>
      </trkpt>
      <trkpt lat="50.572669" lon="6.501970">
        <ele>355.825000</ele>
        <time>2009-05-14T22:41:54Z</time>
      </trkpt>
      <trkpt lat="50.572911" lon="6.501566">
        <ele>356.306000</ele>
        <time>2009-05-14T22:42:24Z</time>
      </trkpt>
      <trkpt lat="50.573144" lon="6.501166">
        <ele>356.306000</ele>
        <time>2009-05-14T22:42:54Z</time>
      </trkpt>
      <trkpt lat="50.573349" lon="6.500767">
        <ele>360.632000</ele>
        <time>2009-05-14T22:43:23Z</time>
      </trkpt>
      <trkpt lat="50.573646" lon="6.500528">
        <ele>364.958000</ele>
        <time>2009-05-14T22:43:52Z</time>
      </trkpt>
      <trkpt lat="50.573956" lon="6.500435">
        <ele>368.803000</ele>
        <time>2009-05-14T22:44:19Z</time>
      </trkpt>
      <trkpt lat="50.574286" lon="6.500324">
        <ele>371.687000</ele>
        <time>2009-05-14T22:44:48Z</time>
      </trkpt>
      <trkpt lat="50.574603" lon="6.500175">
        <ele>373.129000</ele>
        <time>2009-05-14T22:45:17Z</time>
      </trkpt>
      <trkpt lat="50.574944" lon="6.500025">
        <ele>373.609000</ele>
        <time>2009-05-14T22:45:48Z</time>
      </trkpt>
      <trkpt lat="50.575272" lon="6.499712">
        <ele>374.090000</ele>
        <time>2009-05-14T22:46:21Z</time>
      </trkpt>
      <trkpt lat="50.575568" lon="6.499410">
        <ele>373.609000</ele>
        <time>2009-05-14T22:46:52Z</time>
      </trkpt>
      <trkpt lat="50.575860" lon="6.499169">
        <ele>371.687000</ele>
        <time>2009-05-14T22:47:21Z</time>
      </trkpt>
      <trkpt lat="50.576237" lon="6.499080">
        <ele>372.167000</ele>
        <time>2009-05-14T22:47:54Z</time>
      </trkpt>
      <trkpt lat="50.576589" lon="6.498836">
        <ele>367.361000</ele>
        <time>2009-05-14T22:48:27Z</time>
      </trkpt>
      <trkpt lat="50.576888" lon="6.498672">
        <ele>363.516000</ele>
        <time>2009-05-14T22:48:55Z</time>
      </trkpt>
      <trkpt lat="50.576888" lon="6.498672">
        <ele>363.516000</ele>
        <time>2009-05-14T22:48:55Z</time>
      </trkpt>
      <trkpt lat="50.576879" lon="6.498345">
        <ele>271.710000</ele>
        <time>2009-05-14T22:49:13Z</time>
      </trkpt>
      <trkpt lat="50.576882" lon="6.498043">
        <ele>269.787000</ele>
        <time>2009-05-14T22:49:30Z</time>
      </trkpt>
      <trkpt lat="50.576802" lon="6.497519">
        <ele>266.422000</ele>
        <time>2009-05-14T22:50:00Z</time>
      </trkpt>
      <trkpt lat="50.576796" lon="6.497127">
        <ele>265.461000</ele>
        <time>2009-05-14T22:50:21Z</time>
      </trkpt>
      <trkpt lat="50.576774" lon="6.496643">
        <ele>264.019000</ele>
        <time>2009-05-14T22:50:48Z</time>
      </trkpt>
      <trkpt lat="50.576564" lon="6.496328">
        <ele>267.384000</ele>
        <time>2009-05-14T22:51:13Z</time>
      </trkpt>
      <trkpt lat="50.576337" lon="6.496180">
        <ele>277.958000</ele>
        <time>2009-05-14T22:51:35Z</time>
      </trkpt>
      <trkpt lat="50.576264" lon="6.496196">
        <ele>279.400000</ele>
        <time>2009-05-14T22:51:41Z</time>
      </trkpt>
      <trkpt lat="50.576313" lon="6.496305">
        <ele>281.323000</ele>
        <time>2009-05-14T22:51:48Z</time>
      </trkpt>
      <trkpt lat="50.576652" lon="6.496489">
        <ele>283.726000</ele>
        <time>2009-05-14T22:52:20Z</time>
      </trkpt>
      <trkpt lat="50.576870" lon="6.496625">
        <ele>287.091000</ele>
        <time>2009-05-14T22:52:40Z</time>
      </trkpt>
      <trkpt lat="50.576896" lon="6.496692">
        <ele>292.378000</ele>
        <time>2009-05-14T22:52:44Z</time>
      </trkpt>
      <trkpt lat="50.576973" lon="6.497213">
        <ele>298.146000</ele>
        <time>2009-05-14T22:53:14Z</time>
      </trkpt>
      <trkpt lat="50.577164" lon="6.497124">
        <ele>304.875000</ele>
        <time>2009-05-14T22:53:31Z</time>
      </trkpt>
      <trkpt lat="50.577414" lon="6.497000">
        <ele>312.085000</ele>
        <time>2009-05-14T22:53:54Z</time>
      </trkpt>
      <trkpt lat="50.577642" lon="6.496868">
        <ele>319.295000</ele>
        <time>2009-05-14T22:54:15Z</time>
      </trkpt>
      <trkpt lat="50.577931" lon="6.496800">
        <ele>326.024000</ele>
        <time>2009-05-14T22:54:41Z</time>
      </trkpt>
      <trkpt lat="50.578152" lon="6.496554">
        <ele>331.792000</ele>
        <time>2009-05-14T22:55:04Z</time>
      </trkpt>
      <trkpt lat="50.578439" lon="6.496353">
        <ele>335.157000</ele>
        <time>2009-05-14T22:55:32Z</time>
      </trkpt>
      <trkpt lat="50.578699" lon="6.496123">
        <ele>338.041000</ele>
        <time>2009-05-14T22:55:58Z</time>
      </trkpt>
      <trkpt lat="50.578874" lon="6.495990">
        <ele>344.289000</ele>
        <time>2009-05-14T22:56:14Z</time>
      </trkpt>
      <trkpt lat="50.579008" lon="6.495615">
        <ele>351.018000</ele>
        <time>2009-05-14T22:56:38Z</time>
      </trkpt>
      <trkpt lat="50.579094" lon="6.495270">
        <ele>355.344000</ele>
        <time>2009-05-14T22:56:59Z</time>
      </trkpt>
      <trkpt lat="50.579237" lon="6.494863">
        <ele>360.151000</ele>
        <time>2009-05-14T22:57:24Z</time>
      </trkpt>
      <trkpt lat="50.579374" lon="6.494454">
        <ele>364.477000</ele>
        <time>2009-05-14T22:57:50Z</time>
      </trkpt>
      <trkpt lat="50.579531" lon="6.494066">
        <ele>371.687000</ele>
        <time>2009-05-14T22:58:15Z</time>
      </trkpt>
      <trkpt lat="50.579696" lon="6.493650">
        <ele>377.935000</ele>
        <time>2009-05-14T22:58:43Z</time>
      </trkpt>
      <trkpt lat="50.579838" lon="6.493267">
        <ele>383.223000</ele>
        <time>2009-05-14T22:59:07Z</time>
      </trkpt>
      <trkpt lat="50.579946" lon="6.492839">
        <ele>388.991000</ele>
        <time>2009-05-14T22:59:32Z</time>
      </trkpt>
      <trkpt lat="50.580071" lon="6.492436">
        <ele>393.797000</ele>
        <time>2009-05-14T22:59:57Z</time>
      </trkpt>
      <trkpt lat="50.580189" lon="6.492377">
        <ele>397.162000</ele>
        <time>2009-05-14T23:00:08Z</time>
      </trkpt>
      <trkpt lat="50.580198" lon="6.492798">
        <ele>401.969000</ele>
        <time>2009-05-14T23:00:31Z</time>
      </trkpt>
      <trkpt lat="50.580211" lon="6.493231">
        <ele>406.775000</ele>
        <time>2009-05-14T23:00:55Z</time>
      </trkpt>
      <trkpt lat="50.580233" lon="6.493703">
        <ele>410.140000</ele>
        <time>2009-05-14T23:01:21Z</time>
      </trkpt>
      <trkpt lat="50.580344" lon="6.493982">
        <ele>416.388000</ele>
        <time>2009-05-14T23:01:40Z</time>
      </trkpt>
      <trkpt lat="50.580625" lon="6.494207">
        <ele>423.117000</ele>
        <time>2009-05-14T23:02:07Z</time>
      </trkpt>
      <trkpt lat="50.580980" lon="6.494115">
        <ele>428.405000</ele>
        <time>2009-05-14T23:02:38Z</time>
      </trkpt>
      <trkpt lat="50.581232" lon="6.494080">
        <ele>433.211000</ele>
        <time>2009-05-14T23:03:00Z</time>
      </trkpt>
      <trkpt lat="50.581427" lon="6.494118">
        <ele>438.018000</ele>
        <time>2009-05-14T23:03:17Z</time>
      </trkpt>
      <trkpt lat="50.581521" lon="6.494147">
        <ele>441.382000</ele>
        <time>2009-05-14T23:03:26Z</time>
      </trkpt>
      <trkpt lat="50.581386" lon="6.493965">
        <ele>442.824000</ele>
        <time>2009-05-14T23:03:41Z</time>
      </trkpt>
      <trkpt lat="50.581034" lon="6.493850">
        <ele>445.228000</ele>
        <time>2009-05-14T23:04:13Z</time>
      </trkpt>
      <trkpt lat="50.580902" lon="6.493491">
        <ele>446.670000</ele>
        <time>2009-05-14T23:04:35Z</time>
      </trkpt>
      <trkpt lat="50.581170" lon="6.493320">
        <ele>449.554000</ele>
        <time>2009-05-14T23:05:01Z</time>
      </trkpt>
      <trkpt lat="50.581454" lon="6.493248">
        <ele>451.476000</ele>
        <time>2009-05-14T23:05:26Z</time>
      </trkpt>
      <trkpt lat="50.581749" lon="6.493036">
        <ele>455.802000</ele>
        <time>2009-05-14T23:05:54Z</time>
      </trkpt>
      <trkpt lat="50.582020" lon="6.492990">
        <ele>457.725000</ele>
        <time>2009-05-14T23:06:18Z</time>
      </trkpt>
      <trkpt lat="50.582382" lon="6.492667">
        <ele>459.167000</ele>
        <time>2009-05-14T23:06:54Z</time>
      </trkpt>
      <trkpt lat="50.582377" lon="6.492887">
        <ele>460.128000</ele>
        <time>2009-05-14T23:07:06Z</time>
      </trkpt>
      <trkpt lat="50.582550" lon="6.492747">
        <ele>463.973000</ele>
        <time>2009-05-14T23:07:23Z</time>
      </trkpt>
      <trkpt lat="50.582854" lon="6.492802">
        <ele>468.299000</ele>
        <time>2009-05-14T23:07:50Z</time>
      </trkpt>
      <trkpt lat="50.583196" lon="6.492684">
        <ele>471.183000</ele>
        <time>2009-05-14T23:08:20Z</time>
      </trkpt>
      <trkpt lat="50.583508" lon="6.492412">
        <ele>474.067000</ele>
        <time>2009-05-14T23:08:51Z</time>
      </trkpt>
      <trkpt lat="50.583778" lon="6.492383">
        <ele>478.874000</ele>
        <time>2009-05-14T23:09:15Z</time>
      </trkpt>
      <trkpt lat="50.584010" lon="6.492654">
        <ele>481.758000</ele>
        <time>2009-05-14T23:09:40Z</time>
      </trkpt>
      <trkpt lat="50.584285" lon="6.492937">
        <ele>479.354000</ele>
        <time>2009-05-14T23:10:08Z</time>
      </trkpt>
      <trkpt lat="50.584579" lon="6.493030">
        <ele>480.797000</ele>
        <time>2009-05-14T23:10:34Z</time>
      </trkpt>
      <trkpt lat="50.584738" lon="6.493103">
        <ele>484.642000</ele>
        <time>2009-05-14T23:10:49Z</time>
      </trkpt>
      <trkpt lat="50.585020" lon="6.493412">
        <ele>489.448000</ele>
        <time>2009-05-14T23:11:19Z</time>
      </trkpt>
      <trkpt lat="50.585266" lon="6.493669">
        <ele>491.852000</ele>
        <time>2009-05-14T23:11:44Z</time>
      </trkpt>
      <trkpt lat="50.585564" lon="6.493898">
        <ele>494.255000</ele>
        <time>2009-05-14T23:12:13Z</time>
      </trkpt>
      <trkpt lat="50.585834" lon="6.493812">
        <ele>496.658000</ele>
        <time>2009-05-14T23:12:37Z</time>
      </trkpt>
      <trkpt lat="50.586150" lon="6.493654">
        <ele>498.100000</ele>
        <time>2009-05-14T23:13:06Z</time>
      </trkpt>
      <trkpt lat="50.586404" lon="6.493479">
        <ele>500.984000</ele>
        <time>2009-05-14T23:13:30Z</time>
      </trkpt>
      <trkpt lat="50.586799" lon="6.493283">
        <ele>503.868000</ele>
        <time>2009-05-14T23:14:06Z</time>
      </trkpt>
      <trkpt lat="50.587146" lon="6.493228">
        <ele>506.271000</ele>
        <time>2009-05-14T23:14:37Z</time>
      </trkpt>
      <trkpt lat="50.587470" lon="6.493325">
        <ele>506.271000</ele>
        <time>2009-05-14T23:15:05Z</time>
      </trkpt>
      <trkpt lat="50.587802" lon="6.493333">
        <ele>505.310000</ele>
        <time>2009-05-14T23:15:34Z</time>
      </trkpt>
      <trkpt lat="50.588120" lon="6.493349">
        <ele>503.387000</ele>
        <time>2009-05-14T23:16:02Z</time>
      </trkpt>
      <trkpt lat="50.588468" lon="6.493373">
        <ele>503.868000</ele>
        <time>2009-05-14T23:16:32Z</time>
      </trkpt>
      <trkpt lat="50.588554" lon="6.493540">
        <ele>504.829000</ele>
        <time>2009-05-14T23:16:44Z</time>
      </trkpt>
      <trkpt lat="50.588521" lon="6.493826">
        <ele>507.714000</ele>
        <time>2009-05-14T23:17:00Z</time>
      </trkpt>
      <trkpt lat="50.588314" lon="6.494151">
        <ele>512.039000</ele>
        <time>2009-05-14T23:17:26Z</time>
      </trkpt>
      <trkpt lat="50.588123" lon="6.494431">
        <ele>516.365000</ele>
        <time>2009-05-14T23:17:48Z</time>
      </trkpt>
      <trkpt lat="50.587838" lon="6.494635">
        <ele>517.807000</ele>
        <time>2009-05-14T23:18:16Z</time>
      </trkpt>
      <trkpt lat="50.587611" lon="6.494942">
        <ele>518.769000</ele>
        <time>2009-05-14T23:18:42Z</time>
      </trkpt>
      <trkpt lat="50.587731" lon="6.495407">
        <ele>519.730000</ele>
        <time>2009-05-14T23:19:09Z</time>
      </trkpt>
      <trkpt lat="50.587927" lon="6.495785">
        <ele>519.249000</ele>
        <time>2009-05-14T23:19:36Z</time>
      </trkpt>
      <trkpt lat="50.588108" lon="6.496217">
        <ele>518.288000</ele>
        <time>2009-05-14T23:20:05Z</time>
      </trkpt>
      <trkpt lat="50.588083" lon="6.496345">
        <ele>518.769000</ele>
        <time>2009-05-14T23:20:12Z</time>
      </trkpt>
      <trkpt lat="50.588083" lon="6.496343">
        <ele>518.769000</ele>
        <time>2009-05-14T23:20:12Z</time>
      </trkpt>
      <trkpt lat="50.588091" lon="6.496359">
        <ele>519.249000</ele>
        <time>2009-05-14T23:20:14Z</time>
      </trkpt>
      <trkpt lat="50.588108" lon="6.496401">
        <ele>518.769000</ele>
        <time>2009-05-14T23:20:16Z</time>
      </trkpt>
      <trkpt lat="50.588083" lon="6.496452">
        <ele>519.249000</ele>
        <time>2009-05-14T23:20:20Z</time>
      </trkpt>
      <trkpt lat="50.588124" lon="6.496428">
        <ele>518.769000</ele>
        <time>2009-05-14T23:20:24Z</time>
      </trkpt>
      <trkpt lat="50.588127" lon="6.496406">
        <ele>519.730000</ele>
        <time>2009-05-14T23:20:25Z</time>
      </trkpt>
      <trkpt lat="50.588127" lon="6.496404">
        <ele>519.249000</ele>
        <time>2009-05-14T23:20:25Z</time>
      </trkpt>
      <trkpt lat="50.588127" lon="6.496403">
        <ele>520.691000</ele>
        <time>2009-05-14T23:20:25Z</time>
      </trkpt>
      <trkpt lat="50.588142" lon="6.496457">
        <ele>520.691000</ele>
        <time>2009-05-14T23:20:28Z</time>
      </trkpt>
      <trkpt lat="50.588133" lon="6.496830">
        <ele>520.211000</ele>
        <time>2009-05-14T23:20:49Z</time>
      </trkpt>
      <trkpt lat="50.587937" lon="6.497183">
        <ele>516.846000</ele>
        <time>2009-05-14T23:21:15Z</time>
      </trkpt>
      <trkpt lat="50.587704" lon="6.497561">
        <ele>514.923000</ele>
        <time>2009-05-14T23:21:44Z</time>
      </trkpt>
      <trkpt lat="50.587487" lon="6.497929">
        <ele>513.481000</ele>
        <time>2009-05-14T23:22:12Z</time>
      </trkpt>
      <trkpt lat="50.587330" lon="6.498396">
        <ele>511.559000</ele>
        <time>2009-05-14T23:22:41Z</time>
      </trkpt>
      <trkpt lat="50.587337" lon="6.498857">
        <ele>510.597000</ele>
        <time>2009-05-14T23:23:06Z</time>
      </trkpt>
      <trkpt lat="50.587492" lon="6.499441">
        <ele>510.597000</ele>
        <time>2009-05-14T23:23:41Z</time>
      </trkpt>
      <trkpt lat="50.587371" lon="6.499584">
        <ele>509.155000</ele>
        <time>2009-05-14T23:23:54Z</time>
      </trkpt>
      <trkpt lat="50.587044" lon="6.499344">
        <ele>506.752000</ele>
        <time>2009-05-14T23:24:26Z</time>
      </trkpt>
      <trkpt lat="50.586792" lon="6.499178">
        <ele>503.387000</ele>
        <time>2009-05-14T23:24:50Z</time>
      </trkpt>
      <trkpt lat="50.586671" lon="6.499209">
        <ele>503.387000</ele>
        <time>2009-05-14T23:25:00Z</time>
      </trkpt>
      <trkpt lat="50.586785" lon="6.499473">
        <ele>502.907000</ele>
        <time>2009-05-14T23:25:18Z</time>
      </trkpt>
      <trkpt lat="50.586659" lon="6.499933">
        <ele>503.387000</ele>
        <time>2009-05-14T23:25:46Z</time>
      </trkpt>
      <trkpt lat="50.586430" lon="6.500484">
        <ele>501.465000</ele>
        <time>2009-05-14T23:26:22Z</time>
      </trkpt>
      <trkpt lat="50.586363" lon="6.500943">
        <ele>498.581000</ele>
        <time>2009-05-14T23:26:48Z</time>
      </trkpt>
      <trkpt lat="50.586498" lon="6.501450">
        <ele>497.620000</ele>
        <time>2009-05-14T23:27:18Z</time>
      </trkpt>
      <trkpt lat="50.586677" lon="6.501885">
        <ele>496.658000</ele>
        <time>2009-05-14T23:27:47Z</time>
      </trkpt>
      <trkpt lat="50.586839" lon="6.502394">
        <ele>495.697000</ele>
        <time>2009-05-14T23:28:19Z</time>
      </trkpt>
      <trkpt lat="50.586976" lon="6.502943">
        <ele>494.255000</ele>
        <time>2009-05-14T23:28:51Z</time>
      </trkpt>
      <trkpt lat="50.587029" lon="6.503473">
        <ele>493.774000</ele>
        <time>2009-05-14T23:29:21Z</time>
      </trkpt>
      <trkpt lat="50.586995" lon="6.504045">
        <ele>493.294000</ele>
        <time>2009-05-14T23:29:52Z</time>
      </trkpt>
      <trkpt lat="50.587002" lon="6.504620">
        <ele>492.813000</ele>
        <time>2009-05-14T23:30:24Z</time>
      </trkpt>
      <trkpt lat="50.586903" lon="6.505200">
        <ele>491.852000</ele>
        <time>2009-05-14T23:30:57Z</time>
      </trkpt>
      <trkpt lat="50.586725" lon="6.505639">
        <ele>493.294000</ele>
        <time>2009-05-14T23:31:26Z</time>
      </trkpt>
    </trkseg>
  </trk>

</gpx>
